No particular awareness of the weather is required.    There are no Weather-warnings


Meteo18 Weather Cam more information Meteo18 Weather Cam


Thunder radar more information blitzortung!


Rain radar more information rain snow radar


Visit our other weather sites:

Template documentation
and downloads

And another site



Weather Underground History page Text

Daily Summary for March 23, 2017 Units:  Both    English   Metric
« Previous Day
Next Day »
Daily Weekly Monthly Yearly Custom
  High: Low: Average:
Temperature: TemperatureC °F /  -17.8 °C 3.8 °F /  -15.7 °C 6.3 °F /  -14.3 °C
Dew Point: DewpointC °F /  -17.8 °C 2.5 °F /  -16.4 °C 4.8 °F /  -15.1 °C
Humidity: Humidity % 85 % 90 %
Wind Speed: WindSpeedKMH mph /  0 km/h - 2.4 mph /  3.9 km/h
Wind Gust: WindSpeedGustKMH mph /  0 km/h - -
Wind:- - South
Pressure: PressurehPa in /  0 hPa 1006.7 in /  34086.9 hPa -
Precipitation: 2.3 in /  58.42 mm    
Historical Graphs
 
 
Tabular Data for March 23, 2017
Time Temperature Dew Point Pressure Wind Wind Speed Wind Gust Humidity Rainfall Rate (Hourly)
TemperatureC °F /  -17.8 °C DewpointC °F /  -17.8 °C PressurehPa in /  0 hPa Calm     Humidity % HourlyPrecipMM in /  0 mm
00:02 6.5 °F /  -14.2 °C 4.5 °F /  -15.3 °C 1009.4 in /  34178.3 hPa Calm   1.6 mph /  2.6 km/h 87 % 0.0 in /  0 mm
00:12 6.6 °F /  -14.1 °C 4.8 °F /  -15.1 °C 1009.4 in /  34178.3 hPa Calm   1.6 mph /  2.6 km/h 88 % 0.0 in /  0 mm
00:17 6.6 °F /  -14.1 °C 4.8 °F /  -15.1 °C 1009.4 in /  34178.3 hPa Calm   1.6 mph /  2.6 km/h 88 % 0.0 in /  0 mm
00:22 6.4 °F /  -14.2 °C 4.6 °F /  -15.2 °C 1009.4 in /  34178.3 hPa East 1.6 mph /  2.6 km/h 1.6 mph /  2.6 km/h 88 % 0.0 in /  0 mm
00:27 6.3 °F /  -14.3 °C 4.6 °F /  -15.2 °C 1009.0 in /  34164.7 hPa ENE 1.6 mph /  2.6 km/h 1.6 mph /  2.6 km/h 89 % 0.0 in /  0 mm
00:32 6.3 °F /  -14.3 °C 4.6 °F /  -15.2 °C 1009.0 in /  34164.7 hPa ENE 3.2 mph /  5.1 km/h 3.2 mph /  5.1 km/h 89 % 0.0 in /  0 mm
00:37 6.4 °F /  -14.2 °C 4.7 °F /  -15.2 °C 1009.0 in /  34164.7 hPa ENE 1.6 mph /  2.6 km/h 3.2 mph /  5.1 km/h 89 % 0.0 in /  0 mm
00:42 6.3 °F /  -14.3 °C 4.5 °F /  -15.3 °C 1009.0 in /  34164.7 hPa ENE 3.2 mph /  5.1 km/h 4.8 mph /  7.7 km/h 88 % 0.0 in /  0 mm
00:52 6.1 °F /  -14.4 °C 4.3 °F /  -15.4 °C 1009.0 in /  34164.7 hPa Calm   4.8 mph /  7.7 km/h 88 % 0.0 in /  0 mm
00:57 5.9 °F /  -14.5 °C 4.1 °F /  -15.5 °C 1009.0 in /  34164.7 hPa Calm   4.8 mph /  7.7 km/h 88 % 0.0 in /  0 mm
01:02 5.8 °F /  -14.6 °C 4.0 °F /  -15.6 °C 1008.7 in /  34154.6 hPa Calm   4.8 mph /  7.7 km/h 88 % 0.0 in /  0 mm
01:07 5.7 °F /  -14.6 °C 3.9 °F /  -15.6 °C 1008.7 in /  34154.6 hPa Calm   1.6 mph /  2.6 km/h 88 % 0.0 in /  0 mm
01:12 5.7 °F /  -14.6 °C 3.9 °F /  -15.6 °C 1008.7 in /  34154.6 hPa Calm   1.6 mph /  2.6 km/h 88 % 0.0 in /  0 mm
01:17 5.7 °F /  -14.6 °C 3.9 °F /  -15.6 °C 1008.7 in /  34154.6 hPa Calm     88 % 0.0 in /  0 mm
01:22 5.6 °F /  -14.7 °C 3.8 °F /  -15.7 °C 1008.7 in /  34154.6 hPa Calm     88 % 0.0 in /  0 mm
01:32 5.3 °F /  -14.8 °C 3.6 °F /  -15.8 °C 1008.7 in /  34154.6 hPa Calm     89 % 0.0 in /  0 mm
01:37 5.2 °F /  -14.9 °C 3.5 °F /  -15.8 °C 1008.7 in /  34154.6 hPa Calm     89 % 0.0 in /  0 mm
01:42 5.2 °F /  -14.9 °C 3.7 °F /  -15.7 °C 1008.4 in /  34144.4 hPa Calm     90 % 0.0 in /  0 mm
01:47 5.2 °F /  -14.9 °C 3.5 °F /  -15.8 °C 1008.4 in /  34144.4 hPa Calm     89 % 0.0 in /  0 mm
01:52 5.3 °F /  -14.8 °C 3.6 °F /  -15.8 °C 1008.4 in /  34144.4 hPa NNE 3.2 mph /  5.1 km/h   89 % 0.0 in /  0 mm
02:02 5.2 °F /  -14.9 °C 3.5 °F /  -15.8 °C 1008.4 in /  34144.4 hPa Calm   4.8 mph /  7.7 km/h 89 % 0.0 in /  0 mm
02:07 5.2 °F /  -14.9 °C 3.5 °F /  -15.8 °C 1008.4 in /  34144.4 hPa North 1.6 mph /  2.6 km/h 4.8 mph /  7.7 km/h 89 % 0.0 in /  0 mm
02:12 5.2 °F /  -14.9 °C 3.5 °F /  -15.8 °C 1008.4 in /  34144.4 hPa Calm   4.8 mph /  7.7 km/h 89 % 0.0 in /  0 mm
02:17 5.0 °F /  -15 °C 3.3 °F /  -15.9 °C 1008.4 in /  34144.4 hPa North 1.6 mph /  2.6 km/h 1.6 mph /  2.6 km/h 89 % 0.0 in /  0 mm
02:22 4.8 °F /  -15.1 °C 3.1 °F /  -16.1 °C 1008.4 in /  34144.4 hPa NW 3.2 mph /  5.1 km/h 3.2 mph /  5.1 km/h 89 % 0.0 in /  0 mm
02:27 4.7 °F /  -15.2 °C 3.2 °F /  -16 °C 1008.4 in /  34144.4 hPa NW 1.6 mph /  2.6 km/h 3.2 mph /  5.1 km/h 90 % 0.0 in /  0 mm
02:32 4.8 °F /  -15.1 °C 3.3 °F /  -15.9 °C 1008.4 in /  34144.4 hPa NNE 3.2 mph /  5.1 km/h 3.2 mph /  5.1 km/h 90 % 0.0 in /  0 mm
02:37 4.7 °F /  -15.2 °C 3.2 °F /  -16 °C 1008.4 in /  34144.4 hPa Calm   3.2 mph /  5.1 km/h 90 % 0.0 in /  0 mm
02:42 4.7 °F /  -15.2 °C 3.2 °F /  -16 °C 1008.4 in /  34144.4 hPa Calm   3.2 mph /  5.1 km/h 90 % 0.0 in /  0 mm
02:47 4.4 °F /  -15.3 °C 2.7 °F /  -16.3 °C 1008.4 in /  34144.4 hPa WNW 1.6 mph /  2.6 km/h 3.2 mph /  5.1 km/h 89 % 0.0 in /  0 mm
02:52 4.2 °F /  -15.4 °C 2.7 °F /  -16.3 °C 1008.4 in /  34144.4 hPa Calm   3.2 mph /  5.1 km/h 90 % 0.0 in /  0 mm
02:57 4.0 °F /  -15.6 °C 2.5 °F /  -16.4 °C 1008.4 in /  34144.4 hPa NNE 1.6 mph /  2.6 km/h 3.2 mph /  5.1 km/h 90 % 0.0 in /  0 mm
03:02 3.8 °F /  -15.7 °C 2.5 °F /  -16.4 °C 1008.0 in /  34130.9 hPa Calm   3.2 mph /  5.1 km/h 91 % 0.0 in /  0 mm
03:07 3.8 °F /  -15.7 °C 2.6 °F /  -16.3 °C 1008.0 in /  34130.9 hPa North 3.2 mph /  5.1 km/h 6.4 mph /  10.3 km/h 92 % 0.0 in /  0 mm
03:12 3.9 °F /  -15.6 °C 2.7 °F /  -16.3 °C 1008.0 in /  34130.9 hPa NNE 3.2 mph /  5.1 km/h 6.4 mph /  10.3 km/h 92 % 0.0 in /  0 mm
03:17 4.1 °F /  -15.5 °C 2.8 °F /  -16.2 °C 1007.7 in /  34120.7 hPa NNW 1.6 mph /  2.6 km/h 6.4 mph /  10.3 km/h 91 % 0.0 in /  0 mm
03:22 4.1 °F /  -15.5 °C 2.8 °F /  -16.2 °C 1007.7 in /  34120.7 hPa North 3.2 mph /  5.1 km/h 6.4 mph /  10.3 km/h 91 % 0.0 in /  0 mm
03:32 4.3 °F /  -15.4 °C 2.8 °F /  -16.2 °C 1007.3 in /  34107.2 hPa Calm   6.4 mph /  10.3 km/h 90 % 0.0 in /  0 mm
03:42 4.3 °F /  -15.4 °C 2.8 °F /  -16.2 °C 1007.7 in /  34120.7 hPa NNE 3.2 mph /  5.1 km/h 6.4 mph /  10.3 km/h 90 % 0.0 in /  0 mm
03:47 4.6 °F /  -15.2 °C 2.9 °F /  -16.2 °C 1007.3 in /  34107.2 hPa NE 1.6 mph /  2.6 km/h 4.8 mph /  7.7 km/h 89 % 0.0 in /  0 mm
03:52 4.7 °F /  -15.2 °C 2.9 °F /  -16.2 °C 1007.3 in /  34107.2 hPa ENE 3.2 mph /  5.1 km/h 4.8 mph /  7.7 km/h 88 % 0.0 in /  0 mm
03:57 4.6 °F /  -15.2 °C 2.8 °F /  -16.2 °C 1007.3 in /  34107.2 hPa NE 1.6 mph /  2.6 km/h 6.4 mph /  10.3 km/h 88 % 0.0 in /  0 mm
04:02 4.4 °F /  -15.3 °C 2.6 °F /  -16.3 °C 1007.3 in /  34107.2 hPa NE 6.4 mph /  10.3 km/h 6.4 mph /  10.3 km/h 88 % 0.0 in /  0 mm
04:07 4.4 °F /  -15.3 °C 2.6 °F /  -16.3 °C 1007.3 in /  34107.2 hPa NE 4.8 mph /  7.7 km/h 8.0 mph /  12.9 km/h 88 % 0.0 in /  0 mm
04:12 4.3 °F /  -15.4 °C 2.5 °F /  -16.4 °C 1007.3 in /  34107.2 hPa NNE 3.2 mph /  5.1 km/h 8.0 mph /  12.9 km/h 88 % 0.0 in /  0 mm
04:17 4.2 °F /  -15.4 °C 2.5 °F /  -16.4 °C 1007.3 in /  34107.2 hPa Calm   8.0 mph /  12.9 km/h 89 % 0.0 in /  0 mm
04:22 4.3 °F /  -15.4 °C 2.6 °F /  -16.3 °C 1007.3 in /  34107.2 hPa Calm   8.0 mph /  12.9 km/h 89 % 0.0 in /  0 mm
04:27 4.3 °F /  -15.4 °C 2.5 °F /  -16.4 °C 1007.3 in /  34107.2 hPa NE 3.2 mph /  5.1 km/h 6.4 mph /  10.3 km/h 88 % 0.0 in /  0 mm
04:32 4.3 °F /  -15.4 °C 2.6 °F /  -16.3 °C 1007.3 in /  34107.2 hPa NNE 4.8 mph /  7.7 km/h 6.4 mph /  10.3 km/h 89 % 0.0 in /  0 mm
04:42 4.6 °F /  -15.2 °C 2.8 °F /  -16.2 °C 1007.3 in /  34107.2 hPa NNE 4.8 mph /  7.7 km/h 6.4 mph /  10.3 km/h 88 % 0.0 in /  0 mm
04:47 4.7 °F /  -15.2 °C 2.9 °F /  -16.2 °C 1007.0 in /  34097 hPa NNE 6.4 mph /  10.3 km/h 6.4 mph /  10.3 km/h 88 % 0.0 in /  0 mm
04:52 4.6 °F /  -15.2 °C 2.6 °F /  -16.3 °C 1006.7 in /  34086.9 hPa Calm   6.4 mph /  10.3 km/h 87 % 0.0 in /  0 mm
04:57 4.4 °F /  -15.3 °C 2.6 °F /  -16.3 °C 1006.7 in /  34086.9 hPa NE 6.4 mph /  10.3 km/h 6.4 mph /  10.3 km/h 88 % 0.0 in /  0 mm
05:02 4.6 °F /  -15.2 °C 2.8 °F /  -16.2 °C 1007.0 in /  34097 hPa NE 3.2 mph /  5.1 km/h 6.4 mph /  10.3 km/h 88 % 0.0 in /  0 mm
05:12 4.7 °F /  -15.2 °C 2.7 °F /  -16.3 °C 1007.0 in /  34097 hPa NE 3.2 mph /  5.1 km/h 6.4 mph /  10.3 km/h 87 % 0.0 in /  0 mm
05:17 4.8 °F /  -15.1 °C 2.8 °F /  -16.2 °C 1006.7 in /  34086.9 hPa NE 4.8 mph /  7.7 km/h 4.8 mph /  7.7 km/h 87 % 0.0 in /  0 mm
05:22 4.7 °F /  -15.2 °C 2.7 °F /  -16.3 °C 1006.7 in /  34086.9 hPa NNE 3.2 mph /  5.1 km/h 4.8 mph /  7.7 km/h 87 % 0.0 in /  0 mm
05:32 4.6 °F /  -15.2 °C 2.6 °F /  -16.3 °C 1006.7 in /  34086.9 hPa Calm   6.4 mph /  10.3 km/h 87 % 0.0 in /  0 mm
05:42 4.6 °F /  -15.2 °C 2.8 °F /  -16.2 °C 1006.7 in /  34086.9 hPa Calm   6.4 mph /  10.3 km/h 88 % 0.0 in /  0 mm
05:52 4.6 °F /  -15.2 °C 2.8 °F /  -16.2 °C 1007.0 in /  34097 hPa Calm   6.4 mph /  10.3 km/h 88 % 0.0 in /  0 mm
06:02 4.7 °F /  -15.2 °C 2.9 °F /  -16.2 °C 1007.0 in /  34097 hPa Calm   1.6 mph /  2.6 km/h 88 % 0.0 in /  0 mm
06:12 4.8 °F /  -15.1 °C 3.0 °F /  -16.1 °C 1007.3 in /  34107.2 hPa WSW 6.4 mph /  10.3 km/h 6.4 mph /  10.3 km/h 88 % 0.0 in /  0 mm
06:17 4.8 °F /  -15.1 °C 3.0 °F /  -16.1 °C 1007.0 in /  34097 hPa Calm   6.4 mph /  10.3 km/h 88 % 0.0 in /  0 mm
06:22 4.8 °F /  -15.1 °C 3.0 °F /  -16.1 °C 1007.3 in /  34107.2 hPa Calm   6.4 mph /  10.3 km/h 88 % 0.0 in /  0 mm
06:27 4.8 °F /  -15.1 °C 3.1 °F /  -16.1 °C 1007.3 in /  34107.2 hPa Calm   6.4 mph /  10.3 km/h 89 % 0.0 in /  0 mm
06:32 4.8 °F /  -15.1 °C 3.1 °F /  -16.1 °C 1007.3 in /  34107.2 hPa SSW 1.6 mph /  2.6 km/h 6.4 mph /  10.3 km/h 89 % 0.0 in /  0 mm
06:37 4.9 °F /  -15.1 °C 3.4 °F /  -15.9 °C 1007.3 in /  34107.2 hPa SSW 1.6 mph /  2.6 km/h 4.8 mph /  7.7 km/h 90 % 0.0 in /  0 mm
06:42 5.0 °F /  -15 °C 3.5 °F /  -15.8 °C 1007.3 in /  34107.2 hPa WSW 1.6 mph /  2.6 km/h 4.8 mph /  7.7 km/h 90 % 0.0 in /  0 mm
06:47 5.2 °F /  -14.9 °C 3.5 °F /  -15.8 °C 1007.3 in /  34107.2 hPa SSW 1.6 mph /  2.6 km/h 8.0 mph /  12.9 km/h 89 % 0.0 in /  0 mm
06:52 5.2 °F /  -14.9 °C 3.5 °F /  -15.8 °C 1007.3 in /  34107.2 hPa South 1.6 mph /  2.6 km/h 8.0 mph /  12.9 km/h 89 % 0.0 in /  0 mm
07:02 5.1 °F /  -14.9 °C 3.6 °F /  -15.8 °C 1007.3 in /  34107.2 hPa SSW 3.2 mph /  5.1 km/h 8.0 mph /  12.9 km/h 90 % 0.0 in /  0 mm
07:12 5.0 °F /  -15 °C 3.7 °F /  -15.7 °C 1007.3 in /  34107.2 hPa Calm   3.2 mph /  5.1 km/h 91 % 0.0 in /  0 mm
07:17 5.1 °F /  -14.9 °C 3.8 °F /  -15.7 °C 1007.3 in /  34107.2 hPa SSE 1.6 mph /  2.6 km/h 3.2 mph /  5.1 km/h 91 % 0.0 in /  0 mm
07:22 5.2 °F /  -14.9 °C 3.9 °F /  -15.6 °C 1007.3 in /  34107.2 hPa Calm   3.2 mph /  5.1 km/h 91 % 0.0 in /  0 mm
07:32 5.3 °F /  -14.8 °C 4.0 °F /  -15.6 °C 1007.7 in /  34120.7 hPa Calm   1.6 mph /  2.6 km/h 91 % 0.0 in /  0 mm
07:37 5.3 °F /  -14.8 °C 4.0 °F /  -15.6 °C 1007.7 in /  34120.7 hPa Calm   1.6 mph /  2.6 km/h 91 % 0.0 in /  0 mm
07:42 5.3 °F /  -14.8 °C 4.0 °F /  -15.6 °C 1007.7 in /  34120.7 hPa Calm   1.6 mph /  2.6 km/h 91 % 0.0 in /  0 mm
07:47 5.3 °F /  -14.8 °C 4.0 °F /  -15.6 °C 1007.7 in /  34120.7 hPa Calm   1.6 mph /  2.6 km/h 91 % 0.0 in /  0 mm
07:52 5.3 °F /  -14.8 °C 4.0 °F /  -15.6 °C 1008.0 in /  34130.9 hPa Calm     91 % 0.3 in /  7.62 mm
07:57 5.3 °F /  -14.8 °C 4.1 °F /  -15.5 °C 1008.0 in /  34130.9 hPa SW 1.6 mph /  2.6 km/h   92 % 0.3 in /  7.62 mm
08:02 5.4 °F /  -14.8 °C 4.2 °F /  -15.4 °C 1008.0 in /  34130.9 hPa SW 1.6 mph /  2.6 km/h 3.2 mph /  5.1 km/h 92 % 0.3 in /  7.62 mm
08:07 5.4 °F /  -14.8 °C 4.2 °F /  -15.4 °C 1008.0 in /  34130.9 hPa Calm   3.2 mph /  5.1 km/h 92 % 0.3 in /  7.62 mm
08:12 5.4 °F /  -14.8 °C 4.2 °F /  -15.4 °C 1008.4 in /  34144.4 hPa SSW 1.6 mph /  2.6 km/h 4.8 mph /  7.7 km/h 92 % 0.3 in /  7.62 mm
08:17 5.5 °F /  -14.7 °C 4.3 °F /  -15.4 °C 1008.4 in /  34144.4 hPa South 6.4 mph /  10.3 km/h 6.4 mph /  10.3 km/h 92 % 0.3 in /  7.62 mm
08:22 5.5 °F /  -14.7 °C 4.5 °F /  -15.3 °C 1008.4 in /  34144.4 hPa SSW 1.6 mph /  2.6 km/h 8.0 mph /  12.9 km/h 93 % 0.3 in /  7.62 mm
08:27 5.5 °F /  -14.7 °C 4.5 °F /  -15.3 °C 1008.4 in /  34144.4 hPa Calm   8.0 mph /  12.9 km/h 93 % 0.3 in /  7.62 mm
08:32 5.5 °F /  -14.7 °C 4.5 °F /  -15.3 °C 1008.4 in /  34144.4 hPa Calm   8.0 mph /  12.9 km/h 93 % 0.5 in /  12.7 mm
08:42 5.4 °F /  -14.8 °C 4.4 °F /  -15.3 °C 1008.4 in /  34144.4 hPa Calm   1.6 mph /  2.6 km/h 93 % 0.5 in /  12.7 mm
08:47 5.5 °F /  -14.7 °C 4.5 °F /  -15.3 °C 1008.0 in /  34130.9 hPa Calm   1.6 mph /  2.6 km/h 93 % 0.5 in /  12.7 mm
08:52 5.5 °F /  -14.7 °C 4.5 °F /  -15.3 °C 1008.0 in /  34130.9 hPa SE 1.6 mph /  2.6 km/h 1.6 mph /  2.6 km/h 93 % 0.3 in /  7.62 mm
09:02 5.8 °F /  -14.6 °C 4.8 °F /  -15.1 °C 1008.0 in /  34130.9 hPa Calm   1.6 mph /  2.6 km/h 93 % 0.3 in /  7.62 mm
09:07 5.7 °F /  -14.6 °C 4.7 °F /  -15.2 °C 1008.4 in /  34144.4 hPa SE 1.6 mph /  2.6 km/h 1.6 mph /  2.6 km/h 93 % 0.3 in /  7.62 mm
09:12 5.9 °F /  -14.5 °C 5.0 °F /  -15 °C 1008.4 in /  34144.4 hPa SE 1.6 mph /  2.6 km/h 3.2 mph /  5.1 km/h 94 % 0.5 in /  12.7 mm
09:17 6.3 °F /  -14.3 °C 5.3 °F /  -14.8 °C 1008.4 in /  34144.4 hPa SE 1.6 mph /  2.6 km/h 3.2 mph /  5.1 km/h 93 % 0.5 in /  12.7 mm
09:22 6.4 °F /  -14.2 °C 5.4 °F /  -14.8 °C 1008.4 in /  34144.4 hPa SSW 1.6 mph /  2.6 km/h 3.2 mph /  5.1 km/h 93 % 0.5 in /  12.7 mm
09:27 6.8 °F /  -14 °C 5.6 °F /  -14.7 °C 1008.4 in /  34144.4 hPa SSW 1.6 mph /  2.6 km/h 3.2 mph /  5.1 km/h 92 % 0.5 in /  12.7 mm
09:32 7.0 °F /  -13.9 °C 5.6 °F /  -14.7 °C 1008.4 in /  34144.4 hPa SW 1.6 mph /  2.6 km/h 4.8 mph /  7.7 km/h 91 % 0.3 in /  7.62 mm
09:37 7.1 °F /  -13.8 °C 5.6 °F /  -14.7 °C 1008.4 in /  34144.4 hPa SSE 1.6 mph /  2.6 km/h 4.8 mph /  7.7 km/h 90 % 0.3 in /  7.62 mm
09:42 7.2 °F /  -13.8 °C 5.7 °F /  -14.6 °C 1008.4 in /  34144.4 hPa Calm   3.2 mph /  5.1 km/h 90 % 0.3 in /  7.62 mm
09:47 7.1 °F /  -13.8 °C 5.4 °F /  -14.8 °C 1008.4 in /  34144.4 hPa Calm   3.2 mph /  5.1 km/h 89 % 0.3 in /  7.62 mm
09:52 7.2 °F /  -13.8 °C 5.7 °F /  -14.6 °C 1008.4 in /  34144.4 hPa Calm   3.2 mph /  5.1 km/h 90 % 0.3 in /  7.62 mm
09:57 7.3 °F /  -13.7 °C 5.6 °F /  -14.7 °C 1008.4 in /  34144.4 hPa Calm   3.2 mph /  5.1 km/h 89 % 0.3 in /  7.62 mm
10:02 7.3 °F /  -13.7 °C 5.6 °F /  -14.7 °C 1008.7 in /  34154.6 hPa SW 1.6 mph /  2.6 km/h 3.2 mph /  5.1 km/h 89 % 0.3 in /  7.62 mm
10:07 7.2 °F /  -13.8 °C 5.5 °F /  -14.7 °C 1008.7 in /  34154.6 hPa SSW 4.8 mph /  7.7 km/h 4.8 mph /  7.7 km/h 89 % 0.3 in /  7.62 mm
10:12 7.1 °F /  -13.8 °C 5.6 °F /  -14.7 °C 1009.0 in /  34164.7 hPa SW 11.3 mph /  18.2 km/h 11.3 mph /  18.2 km/h 90 % 0.0 in /  0 mm
10:17 6.8 °F /  -14 °C 5.3 °F /  -14.8 °C 1009.4 in /  34178.3 hPa WSW 9.7 mph /  15.6 km/h 9.7 mph /  15.6 km/h 90 % 0.0 in /  0 mm
10:22 6.7 °F /  -14.1 °C 5.3 °F /  -14.8 °C 1009.0 in /  34164.7 hPa SSW 9.7 mph /  15.6 km/h 19.3 mph /  31.1 km/h 91 % 0.0 in /  0 mm
10:27 6.7 °F /  -14.1 °C 5.3 °F /  -14.8 °C 1009.4 in /  34178.3 hPa SW 11.3 mph /  18.2 km/h 19.3 mph /  31.1 km/h 91 % 0.0 in /  0 mm
10:32 6.7 °F /  -14.1 °C 5.3 °F /  -14.8 °C 1009.0 in /  34164.7 hPa WSW 11.3 mph /  18.2 km/h 19.3 mph /  31.1 km/h 91 % 0.0 in /  0 mm
10:37 6.7 °F /  -14.1 °C 5.3 °F /  -14.8 °C 1009.0 in /  34164.7 hPa SW 9.7 mph /  15.6 km/h 19.3 mph /  31.1 km/h 91 % 0.0 in /  0 mm
10:42 6.6 °F /  -14.1 °C 5.2 °F /  -14.9 °C 1009.0 in /  34164.7 hPa Calm   12.9 mph /  20.8 km/h 91 % 0.0 in /  0 mm
10:47 6.6 °F /  -14.1 °C 5.2 °F /  -14.9 °C 1009.0 in /  34164.7 hPa WSW 3.2 mph /  5.1 km/h 12.9 mph /  20.8 km/h 91 % 0.0 in /  0 mm
10:52 6.6 °F /  -14.1 °C 5.2 °F /  -14.9 °C 1009.0 in /  34164.7 hPa WSW 1.6 mph /  2.6 km/h 11.3 mph /  18.2 km/h 91 % 0.0 in /  0 mm
10:57 6.6 °F /  -14.1 °C 5.2 °F /  -14.9 °C 1009.0 in /  34164.7 hPa WSW 4.8 mph /  7.7 km/h 11.3 mph /  18.2 km/h 91 % 0.0 in /  0 mm
11:02 6.6 °F /  -14.1 °C 5.2 °F /  -14.9 °C 1009.0 in /  34164.7 hPa Calm   4.8 mph /  7.7 km/h 91 % 0.0 in /  0 mm
11:07 6.6 °F /  -14.1 °C 5.2 °F /  -14.9 °C 1009.0 in /  34164.7 hPa Calm   4.8 mph /  7.7 km/h 91 % 0.0 in /  0 mm
11:12 6.7 °F /  -14.1 °C 5.3 °F /  -14.8 °C 1009.0 in /  34164.7 hPa SW 1.6 mph /  2.6 km/h 4.8 mph /  7.7 km/h 91 % 0.0 in /  0 mm
11:17 6.7 °F /  -14.1 °C 5.3 °F /  -14.8 °C 1009.4 in /  34178.3 hPa West 3.2 mph /  5.1 km/h 4.8 mph /  7.7 km/h 91 % 0.0 in /  0 mm
11:27 6.8 °F /  -14 °C 5.6 °F /  -14.7 °C 1009.4 in /  34178.3 hPa WSW 4.8 mph /  7.7 km/h 4.8 mph /  7.7 km/h 92 % 0.0 in /  0 mm
11:32 6.9 °F /  -13.9 °C 5.7 °F /  -14.6 °C 1009.0 in /  34164.7 hPa WSW 6.4 mph /  10.3 km/h 8.0 mph /  12.9 km/h 92 % 0.0 in /  0 mm
11:37 6.9 °F /  -13.9 °C 5.5 °F /  -14.7 °C 1009.4 in /  34178.3 hPa WSW 11.3 mph /  18.2 km/h 11.3 mph /  18.2 km/h 91 % 0.0 in /  0 mm
11:42 6.9 °F /  -13.9 °C 5.7 °F /  -14.6 °C 1009.4 in /  34178.3 hPa WSW 4.8 mph /  7.7 km/h 11.3 mph /  18.2 km/h 92 % 0.0 in /  0 mm
11:52 6.8 °F /  -14 °C 5.4 °F /  -14.8 °C 1009.0 in /  34164.7 hPa SW 3.2 mph /  5.1 km/h 11.3 mph /  18.2 km/h 91 % 0.0 in /  0 mm
11:57 6.9 °F /  -13.9 °C 5.7 °F /  -14.6 °C 1009.4 in /  34178.3 hPa WSW 1.6 mph /  2.6 km/h 11.3 mph /  18.2 km/h 92 % 0.0 in /  0 mm
12:02 6.9 °F /  -13.9 °C 5.5 °F /  -14.7 °C 1009.4 in /  34178.3 hPa WSW 3.2 mph /  5.1 km/h 8.0 mph /  12.9 km/h 91 % 0.0 in /  0 mm
12:07 7.0 °F /  -13.9 °C 5.6 °F /  -14.7 °C 1009.4 in /  34178.3 hPa West 1.6 mph /  2.6 km/h 8.0 mph /  12.9 km/h 91 % 0.0 in /  0 mm
12:12 7.1 °F /  -13.8 °C 5.7 °F /  -14.6 °C 1009.4 in /  34178.3 hPa West 1.6 mph /  2.6 km/h 6.4 mph /  10.3 km/h 91 % 0.0 in /  0 mm
12:17 7.1 °F /  -13.8 °C 5.6 °F /  -14.7 °C 1009.4 in /  34178.3 hPa West 4.8 mph /  7.7 km/h 6.4 mph /  10.3 km/h 90 % 0.0 in /  0 mm
12:22 7.0 °F /  -13.9 °C 5.5 °F /  -14.7 °C 1009.4 in /  34178.3 hPa West 3.2 mph /  5.1 km/h 8.0 mph /  12.9 km/h 90 % 0.0 in /  0 mm
12:32 7.1 °F /  -13.8 °C 5.6 °F /  -14.7 °C 1009.4 in /  34178.3 hPa West 1.6 mph /  2.6 km/h 8.0 mph /  12.9 km/h 90 % 0.0 in /  0 mm
12:37 7.1 °F /  -13.8 °C 5.6 °F /  -14.7 °C 1009.4 in /  34178.3 hPa WNW 1.6 mph /  2.6 km/h 8.0 mph /  12.9 km/h 90 % 0.0 in /  0 mm
12:42 7.3 °F /  -13.7 °C 5.8 °F /  -14.6 °C 1009.4 in /  34178.3 hPa West 3.2 mph /  5.1 km/h 6.4 mph /  10.3 km/h 90 % 0.3 in /  7.62 mm
12:47 7.5 °F /  -13.6 °C 6.0 °F /  -14.4 °C 1009.0 in /  34164.7 hPa Calm   6.4 mph /  10.3 km/h 90 % 0.3 in /  7.62 mm
12:52 7.8 °F /  -13.4 °C 6.1 °F /  -14.4 °C 1009.4 in /  34178.3 hPa Calm   8.0 mph /  12.9 km/h 89 % 0.3 in /  7.62 mm
12:57 7.9 °F /  -13.4 °C 6.0 °F /  -14.4 °C 1009.4 in /  34178.3 hPa SE 1.6 mph /  2.6 km/h 8.0 mph /  12.9 km/h 88 % 0.3 in /  7.62 mm
13:02 8.2 °F /  -13.2 °C 6.3 °F /  -14.3 °C 1009.4 in /  34178.3 hPa NE 3.2 mph /  5.1 km/h 8.0 mph /  12.9 km/h 88 % 0.3 in /  7.62 mm
13:12 8.6 °F /  -13 °C 6.6 °F /  -14.1 °C 1009.4 in /  34178.3 hPa Calm   3.2 mph /  5.1 km/h 87 % 0.3 in /  7.62 mm
13:17 8.6 °F /  -13 °C 6.6 °F /  -14.1 °C 1009.4 in /  34178.3 hPa NNE 1.6 mph /  2.6 km/h 4.8 mph /  7.7 km/h 87 % 0.3 in /  7.62 mm
13:22 8.7 °F /  -12.9 °C 6.7 °F /  -14.1 °C 1009.4 in /  34178.3 hPa Calm   4.8 mph /  7.7 km/h 87 % 0.3 in /  7.62 mm
13:32 8.9 °F /  -12.8 °C 6.7 °F /  -14.1 °C 1009.7 in /  34188.4 hPa Calm   1.6 mph /  2.6 km/h 86 % 0.3 in /  7.62 mm
13:37 8.7 °F /  -12.9 °C 6.3 °F /  -14.3 °C 1009.7 in /  34188.4 hPa Calm     85 % 0.0 in /  0 mm
13:42 8.7 °F /  -12.9 °C 6.3 °F /  -14.3 °C 1010.0 in /  34198.6 hPa SW 4.8 mph /  7.7 km/h   85 % 0.0 in /  0 mm
13:47 8.6 °F /  -13 °C 6.4 °F /  -14.2 °C 1010.0 in /  34198.6 hPa Calm   6.4 mph /  10.3 km/h 86 % 0.0 in /  0 mm
13:52 8.6 °F /  -13 °C 6.2 °F /  -14.3 °C 1010.0 in /  34198.6 hPa SSW 6.4 mph /  10.3 km/h 6.4 mph /  10.3 km/h 85 % 0.0 in /  0 mm
13:57 8.5 °F /  -13.1 °C 6.3 °F /  -14.3 °C 1010.0 in /  34198.6 hPa South 1.6 mph /  2.6 km/h 11.3 mph /  18.2 km/h 86 % 0.0 in /  0 mm
14:02 8.4 °F /  -13.1 °C 6.2 °F /  -14.3 °C 1010.0 in /  34198.6 hPa SSW 3.2 mph /  5.1 km/h 11.3 mph /  18.2 km/h 86 % 0.0 in /  0 mm
14:07 8.2 °F /  -13.2 °C 6.2 °F /  -14.3 °C 1010.0 in /  34198.6 hPa SSW 4.8 mph /  7.7 km/h 11.3 mph /  18.2 km/h 87 % 0.3 in /  7.62 mm
14:12 8.2 °F /  -13.2 °C 6.2 °F /  -14.3 °C 1010.0 in /  34198.6 hPa SSW 3.2 mph /  5.1 km/h 11.3 mph /  18.2 km/h 87 % 0.3 in /  7.62 mm
14:17 8.1 °F /  -13.3 °C 6.1 °F /  -14.4 °C 1010.0 in /  34198.6 hPa South 1.6 mph /  2.6 km/h 9.7 mph /  15.6 km/h 87 % 0.3 in /  7.62 mm
14:22 8.1 °F /  -13.3 °C 5.9 °F /  -14.5 °C 1010.0 in /  34198.6 hPa SSE 3.2 mph /  5.1 km/h 9.7 mph /  15.6 km/h 86 % 0.3 in /  7.62 mm
14:27 8.1 °F /  -13.3 °C 6.1 °F /  -14.4 °C 1010.0 in /  34198.6 hPa SSW 8.0 mph /  12.9 km/h 11.3 mph /  18.2 km/h 87 % 0.3 in /  7.62 mm
14:32 8.0 °F /  -13.3 °C 6.0 °F /  -14.4 °C 1010.4 in /  34212.1 hPa SSW 11.3 mph /  18.2 km/h 11.3 mph /  18.2 km/h 87 % 0.3 in /  7.62 mm
14:37 8.0 °F /  -13.3 °C 6.1 °F /  -14.4 °C 1010.4 in /  34212.1 hPa SSW 11.3 mph /  18.2 km/h 12.9 mph /  20.8 km/h 88 % 0.3 in /  7.62 mm
14:42 7.8 °F /  -13.4 °C 6.1 °F /  -14.4 °C 1010.7 in /  34222.3 hPa SW 9.7 mph /  15.6 km/h 12.9 mph /  20.8 km/h 89 % 0.3 in /  7.62 mm
14:52 7.4 °F /  -13.7 °C 6.0 °F /  -14.4 °C 1010.4 in /  34212.1 hPa SSW 8.0 mph /  12.9 km/h 19.3 mph /  31.1 km/h 91 % 0.5 in /  12.7 mm
15:02 7.3 °F /  -13.7 °C 6.1 °F /  -14.4 °C 1010.0 in /  34198.6 hPa WSW 4.8 mph /  7.7 km/h 19.3 mph /  31.1 km/h 92 % 1.0 in /  25.4 mm
15:07 7.4 °F /  -13.7 °C 6.3 °F /  -14.3 °C 1010.0 in /  34198.6 hPa WSW 4.8 mph /  7.7 km/h 12.9 mph /  20.8 km/h 93 % 1.3 in /  33.02 mm
15:12 7.4 °F /  -13.7 °C 6.0 °F /  -14.4 °C 1010.0 in /  34198.6 hPa WSW 11.3 mph /  18.2 km/h 12.9 mph /  20.8 km/h 91 % 1.3 in /  33.02 mm
15:22 7.3 °F /  -13.7 °C 6.1 °F /  -14.4 °C 1010.0 in /  34198.6 hPa WSW 4.8 mph /  7.7 km/h 19.3 mph /  31.1 km/h 92 % 1.3 in /  33.02 mm
15:27 7.4 °F /  -13.7 °C 6.2 °F /  -14.3 °C 1010.4 in /  34212.1 hPa SW 6.4 mph /  10.3 km/h 20.9 mph /  33.6 km/h 92 % 1.5 in /  38.1 mm
15:32 7.6 °F /  -13.6 °C 6.4 °F /  -14.2 °C 1010.0 in /  34198.6 hPa WSW 3.2 mph /  5.1 km/h 20.9 mph /  33.6 km/h 92 % 1.5 in /  38.1 mm
15:42 7.6 °F /  -13.6 °C 6.2 °F /  -14.3 °C 1010.4 in /  34212.1 hPa WSW 11.3 mph /  18.2 km/h 17.7 mph /  28.5 km/h 91 % 1.5 in /  38.1 mm
15:47 7.6 °F /  -13.6 °C 6.2 °F /  -14.3 °C 1010.4 in /  34212.1 hPa West 11.3 mph /  18.2 km/h 17.7 mph /  28.5 km/h 91 % 1.0 in /  25.4 mm
15:52 7.3 °F /  -13.7 °C 5.6 °F /  -14.7 °C 1010.4 in /  34212.1 hPa West 14.5 mph /  23.3 km/h 17.7 mph /  28.5 km/h 89 % 1.0 in /  25.4 mm
16:02 7.3 °F /  -13.7 °C 5.6 °F /  -14.7 °C 1010.7 in /  34222.3 hPa West 12.9 mph /  20.8 km/h 20.9 mph /  33.6 km/h 89 % 0.5 in /  12.7 mm
16:12 7.6 °F /  -13.6 °C 5.9 °F /  -14.5 °C 1010.7 in /  34222.3 hPa West 9.7 mph /  15.6 km/h 20.9 mph /  33.6 km/h 89 % 0.3 in /  7.62 mm
16:17 7.6 °F /  -13.6 °C 5.7 °F /  -14.6 °C 1011.1 in /  34235.8 hPa SW 9.7 mph /  15.6 km/h 14.5 mph /  23.3 km/h 88 % 0.3 in /  7.62 mm
16:32 7.6 °F /  -13.6 °C 5.4 °F /  -14.8 °C 1011.1 in /  34235.8 hPa West 6.4 mph /  10.3 km/h 14.5 mph /  23.3 km/h 86 % 0.0 in /  0 mm
16:37 7.6 °F /  -13.6 °C 5.4 °F /  -14.8 °C 1011.1 in /  34235.8 hPa WSW 1.6 mph /  2.6 km/h 14.5 mph /  23.3 km/h 86 % 0.0 in /  0 mm
16:42 7.6 °F /  -13.6 °C 5.4 °F /  -14.8 °C 1011.1 in /  34235.8 hPa West 8.0 mph /  12.9 km/h 14.5 mph /  23.3 km/h 86 % 0.0 in /  0 mm
16:47 7.6 °F /  -13.6 °C 5.4 °F /  -14.8 °C 1011.4 in /  34246 hPa WSW 8.0 mph /  12.9 km/h 12.9 mph /  20.8 km/h 86 % 0.0 in /  0 mm
16:52 7.5 °F /  -13.6 °C 5.3 °F /  -14.8 °C 1011.4 in /  34246 hPa WSW 4.8 mph /  7.7 km/h 12.9 mph /  20.8 km/h 86 % 0.0 in /  0 mm
16:57 7.4 °F /  -13.7 °C 5.2 °F /  -14.9 °C 1011.7 in /  34256.2 hPa WSW 6.4 mph /  10.3 km/h 11.3 mph /  18.2 km/h 86 % 0.0 in /  0 mm
17:02 7.4 °F /  -13.7 °C 5.4 °F /  -14.8 °C 1011.7 in /  34256.2 hPa WSW 1.6 mph /  2.6 km/h 11.3 mph /  18.2 km/h 87 % 0.0 in /  0 mm
17:12 7.4 °F /  -13.7 °C 5.4 °F /  -14.8 °C 1011.7 in /  34256.2 hPa SW 3.2 mph /  5.1 km/h 9.7 mph /  15.6 km/h 87 % 0.0 in /  0 mm
17:17 7.4 °F /  -13.7 °C 5.4 °F /  -14.8 °C 1011.7 in /  34256.2 hPa Calm   4.8 mph /  7.7 km/h 87 % 0.0 in /  0 mm
17:22 7.4 °F /  -13.7 °C 5.5 °F /  -14.7 °C 1011.7 in /  34256.2 hPa Calm   4.8 mph /  7.7 km/h 88 % 0.0 in /  0 mm
17:32 7.5 °F /  -13.6 °C 5.6 °F /  -14.7 °C 1011.7 in /  34256.2 hPa Calm   4.8 mph /  7.7 km/h 88 % 0.0 in /  0 mm
17:42 7.4 °F /  -13.7 °C 5.5 °F /  -14.7 °C 1012.1 in /  34269.7 hPa Calm   4.8 mph /  7.7 km/h 88 % 0.0 in /  0 mm
17:47 7.4 °F /  -13.7 °C 5.5 °F /  -14.7 °C 1012.1 in /  34269.7 hPa Calm   4.8 mph /  7.7 km/h 88 % 0.0 in /  0 mm
17:52 7.4 °F /  -13.7 °C 5.7 °F /  -14.6 °C 1012.4 in /  34279.9 hPa ESE 1.6 mph /  2.6 km/h 4.8 mph /  7.7 km/h 89 % 0.0 in /  0 mm
17:57 7.4 °F /  -13.7 °C 5.7 °F /  -14.6 °C 1012.4 in /  34279.9 hPa Calm   3.2 mph /  5.1 km/h 89 % 0.0 in /  0 mm
18:02 7.4 °F /  -13.7 °C 5.7 °F /  -14.6 °C 1012.8 in /  34293.4 hPa Calm   3.2 mph /  5.1 km/h 89 % 0.0 in /  0 mm
18:12 7.3 °F /  -13.7 °C 5.8 °F /  -14.6 °C 1013.1 in /  34303.6 hPa Calm   3.2 mph /  5.1 km/h 90 % 0.0 in /  0 mm
18:17 7.3 °F /  -13.7 °C 5.8 °F /  -14.6 °C 1013.1 in /  34303.6 hPa ESE 4.8 mph /  7.7 km/h 4.8 mph /  7.7 km/h 90 % 0.0 in /  0 mm
18:22 7.3 °F /  -13.7 °C 5.8 °F /  -14.6 °C 1013.1 in /  34303.6 hPa Calm   4.8 mph /  7.7 km/h 90 % 0.0 in /  0 mm
18:27 7.2 °F /  -13.8 °C 5.7 °F /  -14.6 °C 1013.1 in /  34303.6 hPa Calm   4.8 mph /  7.7 km/h 90 % 0.0 in /  0 mm
18:32 7.2 °F /  -13.8 °C 5.7 °F /  -14.6 °C 1013.4 in /  34313.7 hPa SE 1.6 mph /  2.6 km/h 4.8 mph /  7.7 km/h 90 % 0.0 in /  0 mm
18:37 7.2 °F /  -13.8 °C 5.7 °F /  -14.6 °C 1013.4 in /  34313.7 hPa Calm   4.8 mph /  7.7 km/h 90 % 0.0 in /  0 mm
18:42 7.2 °F /  -13.8 °C 5.7 °F /  -14.6 °C 1013.4 in /  34313.7 hPa Calm   4.8 mph /  7.7 km/h 90 % 0.0 in /  0 mm
18:47 7.1 °F /  -13.8 °C 5.6 °F /  -14.7 °C 1013.1 in /  34303.6 hPa Calm   4.8 mph /  7.7 km/h 90 % 0.0 in /  0 mm
18:57 7.1 °F /  -13.8 °C 5.7 °F /  -14.6 °C 1013.1 in /  34303.6 hPa Calm   3.2 mph /  5.1 km/h 91 % 0.0 in /  0 mm
19:02 7.0 °F /  -13.9 °C 5.6 °F /  -14.7 °C 1013.1 in /  34303.6 hPa Calm   3.2 mph /  5.1 km/h 91 % 0.0 in /  0 mm
19:12 6.9 °F /  -13.9 °C 5.5 °F /  -14.7 °C 1013.4 in /  34313.7 hPa Calm   3.2 mph /  5.1 km/h 91 % 0.0 in /  0 mm
19:17 6.9 °F /  -13.9 °C 5.7 °F /  -14.6 °C 1013.4 in /  34313.7 hPa Calm   3.2 mph /  5.1 km/h 92 % 0.0 in /  0 mm
19:22 6.8 °F /  -14 °C 5.6 °F /  -14.7 °C 1013.8 in /  34327.3 hPa Calm   3.2 mph /  5.1 km/h 92 % 0.0 in /  0 mm
19:32 6.8 °F /  -14 °C 5.6 °F /  -14.7 °C 1013.8 in /  34327.3 hPa Calm   1.6 mph /  2.6 km/h 92 % 0.0 in /  0 mm
19:37 6.8 °F /  -14 °C 5.6 °F /  -14.7 °C 1013.8 in /  34327.3 hPa Calm   1.6 mph /  2.6 km/h 92 % 0.0 in /  0 mm
19:42 6.8 °F /  -14 °C 5.7 °F /  -14.6 °C 1014.1 in /  34337.4 hPa SW 3.2 mph /  5.1 km/h 3.2 mph /  5.1 km/h 93 % 0.0 in /  0 mm
19:52 6.8 °F /  -14 °C 5.7 °F /  -14.6 °C 1014.4 in /  34347.6 hPa SSW 1.6 mph /  2.6 km/h 4.8 mph /  7.7 km/h 93 % 0.0 in /  0 mm
19:57 6.8 °F /  -14 °C 5.7 °F /  -14.6 °C 1014.4 in /  34347.6 hPa SW 3.2 mph /  5.1 km/h 4.8 mph /  7.7 km/h 93 % 0.0 in /  0 mm
20:02 6.8 °F /  -14 °C 5.7 °F /  -14.6 °C 1014.4 in /  34347.6 hPa SSW 3.2 mph /  5.1 km/h 4.8 mph /  7.7 km/h 93 % 0.0 in /  0 mm
20:07 6.8 °F /  -14 °C 5.7 °F /  -14.6 °C 1014.8 in /  34361.1 hPa SSW 4.8 mph /  7.7 km/h 6.4 mph /  10.3 km/h 93 % 0.0 in /  0 mm
20:12 6.8 °F /  -14 °C 5.7 °F /  -14.6 °C 1014.8 in /  34361.1 hPa SSW 3.2 mph /  5.1 km/h 6.4 mph /  10.3 km/h 93 % 0.0 in /  0 mm
20:17 6.8 °F /  -14 °C 5.7 °F /  -14.6 °C 1014.8 in /  34361.1 hPa SSW 1.6 mph /  2.6 km/h 8.0 mph /  12.9 km/h 93 % 0.0 in /  0 mm
20:22 6.7 °F /  -14.1 °C 5.6 °F /  -14.7 °C 1015.1 in /  34371.3 hPa SSW 1.6 mph /  2.6 km/h 8.0 mph /  12.9 km/h 93 % 0.0 in /  0 mm
20:27 6.7 °F /  -14.1 °C 5.6 °F /  -14.7 °C 1015.1 in /  34371.3 hPa Calm   6.4 mph /  10.3 km/h 93 % 0.0 in /  0 mm
20:37 6.7 °F /  -14.1 °C 5.5 °F /  -14.7 °C 1015.5 in /  34384.8 hPa Calm   6.4 mph /  10.3 km/h 92 % 0.0 in /  0 mm
20:42 6.7 °F /  -14.1 °C 5.6 °F /  -14.7 °C 1015.5 in /  34384.8 hPa South 1.6 mph /  2.6 km/h 6.4 mph /  10.3 km/h 93 % 0.0 in /  0 mm
20:52 6.7 °F /  -14.1 °C 5.6 °F /  -14.7 °C 1015.5 in /  34384.8 hPa Calm   6.4 mph /  10.3 km/h 93 % 0.0 in /  0 mm
20:57 6.7 °F /  -14.1 °C 5.6 °F /  -14.7 °C 1015.5 in /  34384.8 hPa Calm   3.2 mph /  5.1 km/h 93 % 0.0 in /  0 mm
21:02 6.6 °F /  -14.1 °C 5.5 °F /  -14.7 °C 1015.5 in /  34384.8 hPa South 1.6 mph /  2.6 km/h 3.2 mph /  5.1 km/h 93 % 0.0 in /  0 mm
21:12 6.6 °F /  -14.1 °C 5.5 °F /  -14.7 °C 1015.5 in /  34384.8 hPa Calm   3.2 mph /  5.1 km/h 93 % 0.0 in /  0 mm
21:17 6.5 °F /  -14.2 °C 5.4 °F /  -14.8 °C 1015.8 in /  34395 hPa SSW 1.6 mph /  2.6 km/h 3.2 mph /  5.1 km/h 93 % 0.0 in /  0 mm
21:22 6.5 °F /  -14.2 °C 5.4 °F /  -14.8 °C 1015.8 in /  34395 hPa Calm   3.2 mph /  5.1 km/h 93 % 0.0 in /  0 mm
21:27 6.5 °F /  -14.2 °C 5.4 °F /  -14.8 °C 1016.1 in /  34405.1 hPa SW 1.6 mph /  2.6 km/h 3.2 mph /  5.1 km/h 93 % 0.0 in /  0 mm
21:32 6.5 °F /  -14.2 °C 5.4 °F /  -14.8 °C 1016.1 in /  34405.1 hPa SSW 1.6 mph /  2.6 km/h 3.2 mph /  5.1 km/h 93 % 0.0 in /  0 mm
21:42 6.5 °F /  -14.2 °C 5.4 °F /  -14.8 °C 1016.1 in /  34405.1 hPa Calm   4.8 mph /  7.7 km/h 93 % 0.0 in /  0 mm
21:52 6.5 °F /  -14.2 °C 5.4 °F /  -14.8 °C 1016.1 in /  34405.1 hPa SW 4.8 mph /  7.7 km/h 4.8 mph /  7.7 km/h 93 % 0.0 in /  0 mm
21:57 6.5 °F /  -14.2 °C 5.4 °F /  -14.8 °C 1016.1 in /  34405.1 hPa Calm   6.4 mph /  10.3 km/h 93 % 0.0 in /  0 mm
22:02 6.4 °F /  -14.2 °C 5.4 °F /  -14.8 °C 1016.1 in /  34405.1 hPa Calm   6.4 mph /  10.3 km/h 93 % 0.0 in /  0 mm
22:07 6.4 °F /  -14.2 °C 5.4 °F /  -14.8 °C 1016.1 in /  34405.1 hPa SSW 1.6 mph /  2.6 km/h 4.8 mph /  7.7 km/h 93 % 0.0 in /  0 mm
22:17 6.4 °F /  -14.2 °C 5.2 °F /  -14.9 °C 1016.5 in /  34418.7 hPa SSW 1.6 mph /  2.6 km/h 3.2 mph /  5.1 km/h 92 % 0.0 in /  0 mm
22:22 6.3 °F /  -14.3 °C 5.1 °F /  -14.9 °C 1016.5 in /  34418.7 hPa Calm   3.2 mph /  5.1 km/h 92 % 0.0 in /  0 mm
22:27 6.3 °F /  -14.3 °C 5.1 °F /  -14.9 °C 1016.5 in /  34418.7 hPa Calm   1.6 mph /  2.6 km/h 92 % 0.0 in /  0 mm
22:32 6.2 °F /  -14.3 °C 5.0 °F /  -15 °C 1016.8 in /  34428.8 hPa SW 1.6 mph /  2.6 km/h 1.6 mph /  2.6 km/h 92 % 0.0 in /  0 mm
22:42 6.2 °F /  -14.3 °C 5.2 °F /  -14.9 °C 1016.8 in /  34428.8 hPa West 1.6 mph /  2.6 km/h 3.2 mph /  5.1 km/h 93 % 0.0 in /  0 mm
22:52 6.2 °F /  -14.3 °C 5.0 °F /  -15 °C 1016.8 in /  34428.8 hPa Calm   3.2 mph /  5.1 km/h 92 % 0.0 in /  0 mm
22:57 6.1 °F /  -14.4 °C 4.9 °F /  -15.1 °C 1017.2 in /  34442.4 hPa Calm   1.6 mph /  2.6 km/h 92 % 0.0 in /  0 mm
23:02 6.1 °F /  -14.4 °C 4.9 °F /  -15.1 °C 1017.2 in /  34442.4 hPa Calm   1.6 mph /  2.6 km/h 92 % 0.0 in /  0 mm
23:12 5.9 °F /  -14.5 °C 4.9 °F /  -15.1 °C 1017.5 in /  34452.6 hPa Calm     93 % 0.0 in /  0 mm
23:17 5.9 °F /  -14.5 °C 4.9 °F /  -15.1 °C 1017.5 in /  34452.6 hPa Calm   1.6 mph /  2.6 km/h 93 % 0.0 in /  0 mm
23:22 5.8 °F /  -14.6 °C 4.8 °F /  -15.1 °C 1017.5 in /  34452.6 hPa Calm   1.6 mph /  2.6 km/h 93 % 0.0 in /  0 mm
23:32 5.6 °F /  -14.7 °C 4.6 °F /  -15.2 °C 1017.5 in /  34452.6 hPa ENE 1.6 mph /  2.6 km/h 3.2 mph /  5.1 km/h 93 % 0.0 in /  0 mm
23:37 5.4 °F /  -14.8 °C 4.4 °F /  -15.3 °C 1017.8 in /  34462.7 hPa Calm   3.2 mph /  5.1 km/h 93 % 0.0 in /  0 mm
23:42 5.4 °F /  -14.8 °C 4.5 °F /  -15.3 °C 1017.8 in /  34462.7 hPa East 3.2 mph /  5.1 km/h 3.2 mph /  5.1 km/h 94 % 0.0 in /  0 mm
23:52 5.3 °F /  -14.8 °C 4.3 °F /  -15.4 °C 1017.8 in /  34462.7 hPa Calm   3.2 mph /  5.1 km/h 93 % 0.0 in /  0 mm
23:57 5.1 °F /  -14.9 °C 4.1 °F /  -15.5 °C 1017.5 in /  34452.6 hPa Calm   3.2 mph /  5.1 km/h 93 % 0.0 in /  0 mm
Meteo18
Compliments of Weather Underground - 4 mb

Script developed by  Jim McMurry - jmcmurry@mwt.net Adapted for the template by  Wim van der Kuil - Leuven-Template.eu

You find our weather info also at:

European Weather Network

Weather Underground

Equipment we use:

Weather-station
Davis Vue

Weather-program
Meteobridge

Weather-server
Raspberry PI 2 B+

Provider
1 and 1

Davis Vue

Meteobridge

Raspberry PI 2 B+

1 and 1